createdAt,value
2024-01-31T00:02:07.560Z,100.00
2024-01-31T00:04:34.936Z,100.00
2024-01-31T00:07:02.178Z,100.00
2024-01-31T00:09:29.406Z,100.00
2024-01-31T00:11:56.551Z,100.00
2024-01-31T00:14:23.673Z,100.00
2024-01-31T00:16:51.012Z,100.00
2024-01-31T00:19:18.240Z,100.00
2024-01-31T00:21:45.378Z,100.00
2024-01-31T00:24:12.549Z,100.00
2024-01-31T00:26:39.681Z,100.00
2024-01-31T00:29:07.013Z,100.00
2024-01-31T00:31:34.734Z,100.00
2024-01-31T00:34:02.176Z,100.00
2024-01-31T00:36:29.885Z,100.00
2024-01-31T00:38:56.969Z,100.00
2024-01-31T00:41:24.188Z,100.00
2024-01-31T00:43:51.938Z,100.00
2024-01-31T00:46:19.402Z,100.00
2024-01-31T00:48:46.729Z,100.00
2024-01-31T00:51:14.060Z,100.00
2024-01-31T00:53:41.351Z,100.00
2024-01-31T00:56:10.385Z,100.00
2024-01-31T00:58:37.668Z,100.00
2024-01-31T01:01:05.245Z,100.00
2024-01-31T01:03:32.516Z,100.00
2024-01-31T01:05:59.622Z,100.00
2024-01-31T01:08:26.734Z,100.00
2024-01-31T01:10:55.633Z,100.00
2024-01-31T01:13:22.710Z,100.00
2024-01-31T01:15:49.820Z,100.00
2024-01-31T01:18:16.957Z,100.00
2024-01-31T01:20:44.171Z,100.00
2024-01-31T01:23:12.944Z,100.00
2024-01-31T01:25:40.118Z,100.00
2024-01-31T01:28:07.339Z,100.00
2024-01-31T01:30:34.586Z,100.00
2024-01-31T01:33:01.843Z,100.00
2024-01-31T01:35:30.344Z,100.00
2024-01-31T01:37:57.444Z,100.00
2024-01-31T01:40:24.535Z,100.00
2024-01-31T01:42:51.583Z,100.00
2024-01-31T01:45:18.613Z,100.00
2024-01-31T01:47:49.675Z,100.00
2024-01-31T01:50:17.793Z,100.00
2024-01-31T01:52:45.060Z,100.00
2024-01-31T01:55:12.749Z,100.00
2024-01-31T01:57:40.014Z,100.00
2024-01-31T02:00:09.821Z,100.00
2024-01-31T02:02:37.460Z,100.00
2024-01-31T02:05:04.673Z,100.00
2024-01-31T02:07:32.021Z,100.00
2024-01-31T02:10:00.703Z,100.00
2024-01-31T02:12:27.936Z,100.00
2024-01-31T02:14:57.044Z,100.00
2024-01-31T02:17:24.251Z,100.00
2024-01-31T02:19:51.333Z,100.00
2024-01-31T02:22:19.754Z,100.00
2024-01-31T02:24:47.071Z,100.00
2024-01-31T02:27:14.220Z,100.00
2024-01-31T02:29:41.468Z,100.00
2024-01-31T02:32:08.673Z,100.00
2024-01-31T02:34:36.151Z,100.00
2024-01-31T02:37:03.530Z,100.00
2024-01-31T02:39:32.557Z,100.00
2024-01-31T02:41:59.868Z,100.00
2024-01-31T02:44:27.073Z,100.00
2024-01-31T02:46:54.114Z,100.00
2024-01-31T02:49:21.292Z,100.00
2024-01-31T02:51:48.532Z,100.00
2024-01-31T02:54:15.579Z,100.00
2024-01-31T02:56:42.620Z,100.00
2024-01-31T02:59:09.708Z,100.00
2024-01-31T03:01:37.706Z,100.00
2024-01-31T03:04:05.054Z,100.00
2024-01-31T03:06:32.431Z,100.00
2024-01-31T03:08:59.511Z,100.00
2024-01-31T03:11:26.718Z,100.00
2024-01-31T03:13:54.337Z,100.00
2024-01-31T03:16:21.477Z,100.00
2024-01-31T03:18:48.543Z,100.00
2024-01-31T03:21:15.671Z,100.00
2024-01-31T03:23:42.821Z,100.00
2024-01-31T03:26:09.842Z,100.00
2024-01-31T03:28:37.124Z,100.00
2024-01-31T03:31:04.329Z,100.00
2024-01-31T03:33:31.570Z,100.00
2024-01-31T03:35:58.889Z,100.00
2024-01-31T03:38:25.902Z,100.00
2024-01-31T03:40:53.062Z,100.00
2024-01-31T03:43:20.137Z,100.00
2024-01-31T03:45:47.201Z,100.00
2024-01-31T03:48:14.260Z,100.00
2024-01-31T03:50:41.440Z,100.00
2024-01-31T03:53:08.552Z,100.00
2024-01-31T03:55:35.678Z,100.00
2024-01-31T03:58:04.061Z,100.00
2024-01-31T04:00:33.126Z,100.00
2024-01-31T04:03:00.278Z,100.00
2024-01-31T04:05:27.554Z,100.00
2024-01-31T04:07:54.642Z,100.00
2024-01-31T04:10:21.827Z,100.00
2024-01-31T04:12:49.823Z,100.00
2024-01-31T04:15:18.164Z,100.00
2024-01-31T04:17:45.401Z,100.00
2024-01-31T04:20:12.861Z,100.00
2024-01-31T04:22:40.273Z,100.00
2024-01-31T04:25:07.457Z,100.00
2024-01-31T04:27:34.548Z,100.00
2024-01-31T04:30:01.537Z,100.00
2024-01-31T04:32:28.766Z,100.00
2024-01-31T04:34:55.854Z,100.00
2024-01-31T04:37:22.905Z,100.00
2024-01-31T04:39:52.951Z,100.00
2024-01-31T04:42:20.113Z,100.00
2024-01-31T04:44:47.101Z,100.00
2024-01-31T04:47:14.361Z,100.00
2024-01-31T04:49:41.836Z,100.00
2024-01-31T04:52:09.008Z,100.00
2024-01-31T04:54:40.746Z,100.00
2024-01-31T04:57:07.912Z,100.00
2024-01-31T04:59:38.545Z,100.00
2024-01-31T05:02:06.314Z,100.00
2024-01-31T05:04:33.921Z,100.00
2024-01-31T05:07:01.056Z,100.00
2024-01-31T05:09:28.240Z,100.00
2024-01-31T05:11:55.392Z,100.00
2024-01-31T05:14:22.609Z,100.00
2024-01-31T05:16:49.841Z,100.00
2024-01-31T05:19:17.508Z,100.00
2024-01-31T05:21:53.710Z,100.00
2024-01-31T05:24:21.102Z,100.00
2024-01-31T05:26:48.744Z,100.00
2024-01-31T05:29:16.298Z,100.00
2024-01-31T05:31:44.106Z,100.00
2024-01-31T05:34:12.134Z,100.00
2024-01-31T05:36:39.229Z,100.00
2024-01-31T05:39:06.261Z,100.00
2024-01-31T05:41:33.404Z,100.00
2024-01-31T05:44:00.440Z,100.00
2024-01-31T05:46:27.591Z,100.00
2024-01-31T05:48:54.764Z,100.00
2024-01-31T05:51:21.853Z,100.00
2024-01-31T05:53:48.945Z,100.00
2024-01-31T05:56:17.283Z,100.00
2024-01-31T05:58:44.503Z,100.00
2024-01-31T06:01:11.741Z,100.00
2024-01-31T06:03:38.933Z,100.00
2024-01-31T06:06:07.823Z,100.00
2024-01-31T06:08:35.074Z,100.00
2024-01-31T06:11:06.162Z,100.00
2024-01-31T06:13:33.447Z,100.00
2024-01-31T06:16:00.564Z,100.00
2024-01-31T06:18:27.680Z,100.00
2024-01-31T06:20:54.824Z,100.00
2024-01-31T06:23:23.542Z,100.00
2024-01-31T06:25:50.738Z,100.00
2024-01-31T06:28:17.864Z,100.00
2024-01-31T06:30:46.268Z,100.00
2024-01-31T06:33:13.614Z,100.00
2024-01-31T06:35:42.302Z,100.00
2024-01-31T06:38:09.423Z,100.00
2024-01-31T06:40:37.843Z,100.00
2024-01-31T06:43:05.219Z,100.00
2024-01-31T06:45:32.369Z,100.00
2024-01-31T06:48:00.231Z,100.00
2024-01-31T06:50:27.337Z,100.00
2024-01-31T06:52:54.468Z,100.00
2024-01-31T06:55:21.875Z,100.00
2024-01-31T06:57:48.969Z,100.00
2024-01-31T07:00:17.106Z,100.00
2024-01-31T07:02:44.282Z,100.00
2024-01-31T07:05:11.363Z,100.00
2024-01-31T07:07:39.057Z,100.00
2024-01-31T07:10:06.441Z,100.00
2024-01-31T07:12:33.964Z,100.00
2024-01-31T07:15:01.386Z,100.00
2024-01-31T07:17:28.643Z,100.00
2024-01-31T07:19:55.795Z,100.00
2024-01-31T07:22:23.008Z,100.00
2024-01-31T07:24:50.226Z,100.00
2024-01-31T07:27:17.610Z,100.00
2024-01-31T07:29:47.670Z,100.00
2024-01-31T07:32:15.037Z,100.00
2024-01-31T07:34:42.066Z,100.00
2024-01-31T07:37:09.384Z,100.00
2024-01-31T07:39:36.508Z,100.00
2024-01-31T07:42:03.693Z,100.00
2024-01-31T07:44:32.965Z,100.00
2024-01-31T07:47:04.121Z,100.00
2024-01-31T07:49:32.284Z,100.00
2024-01-31T07:51:59.545Z,100.00
2024-01-31T07:54:26.552Z,100.00
2024-01-31T07:56:53.605Z,100.00
2024-01-31T07:59:20.795Z,100.00
2024-01-31T08:01:48.021Z,100.00
2024-01-31T08:04:15.675Z,100.00
2024-01-31T08:06:43.837Z,100.00
2024-01-31T08:09:19.187Z,100.00
2024-01-31T08:11:49.998Z,100.00
2024-01-31T08:14:17.622Z,100.00
2024-01-31T08:16:45.910Z,100.00
2024-01-31T08:19:13.175Z,100.00
2024-01-31T08:21:41.106Z,100.00
2024-01-31T08:24:08.774Z,100.00
2024-01-31T08:26:35.927Z,100.00
2024-01-31T08:29:11.150Z,100.00
2024-01-31T08:31:47.264Z,100.00
2024-01-31T08:34:15.010Z,100.00
2024-01-31T08:36:42.308Z,100.00
2024-01-31T08:39:10.130Z,100.00
2024-01-31T08:41:37.706Z,100.00
2024-01-31T08:44:05.699Z,100.00
2024-01-31T08:46:34.438Z,100.00
2024-01-31T08:49:06.823Z,100.00
2024-01-31T08:51:37.662Z,100.00
2024-01-31T08:54:04.739Z,100.00
2024-01-31T08:56:32.252Z,100.00
2024-01-31T08:58:59.804Z,100.00
2024-01-31T09:01:27.286Z,100.00
2024-01-31T09:03:55.541Z,100.00
2024-01-31T09:06:23.183Z,100.00
2024-01-31T09:08:50.573Z,100.00
2024-01-31T09:11:18.278Z,100.00
2024-01-31T09:13:45.709Z,100.00
2024-01-31T09:16:13.295Z,100.00
2024-01-31T09:18:42.347Z,100.00
2024-01-31T09:21:09.645Z,100.00
2024-01-31T09:23:37.058Z,100.00
2024-01-31T09:26:04.519Z,100.00
2024-01-31T09:28:31.939Z,100.00
2024-01-31T09:30:59.408Z,100.00
2024-01-31T09:33:26.497Z,100.00
2024-01-31T09:35:53.682Z,100.00
2024-01-31T09:38:21.156Z,100.00
2024-01-31T09:40:48.475Z,100.00
2024-01-31T09:43:15.869Z,100.00
2024-01-31T09:45:43.789Z,100.00
2024-01-31T09:48:13.632Z,100.00
2024-01-31T09:50:40.982Z,100.00
2024-01-31T09:53:08.859Z,100.00
2024-01-31T09:55:37.255Z,100.00
2024-01-31T09:58:04.557Z,100.00
2024-01-31T10:00:32.326Z,100.00
2024-01-31T10:02:59.740Z,100.00
2024-01-31T10:05:27.234Z,100.00
2024-01-31T10:08:03.626Z,100.00
2024-01-31T10:10:33.727Z,100.00
2024-01-31T10:13:02.413Z,100.00
2024-01-31T10:15:29.727Z,100.00
2024-01-31T10:17:56.889Z,100.00
2024-01-31T10:20:24.081Z,100.00
2024-01-31T10:22:51.277Z,100.00
2024-01-31T10:25:20.097Z,100.00
2024-01-31T10:27:53.738Z,100.00
2024-01-31T10:30:21.254Z,100.00
2024-01-31T10:32:48.597Z,100.00
2024-01-31T10:37:55.938Z,100.00
2024-01-31T10:40:28.997Z,100.00
2024-01-31T10:42:59.201Z,100.00
2024-01-31T10:45:26.794Z,100.00
2024-01-31T10:47:54.546Z,100.00
2024-01-31T10:50:22.043Z,100.00
2024-01-31T10:52:50.184Z,100.00
2024-01-31T10:55:18.019Z,100.00
2024-01-31T10:57:45.850Z,100.00
2024-01-31T11:00:34.256Z,100.00
2024-01-31T11:03:02.265Z,100.00
2024-01-31T11:05:33.408Z,100.00
2024-01-31T11:08:01.347Z,100.00
2024-01-31T11:10:29.290Z,100.00
2024-01-31T11:13:03.789Z,100.00
2024-01-31T11:15:34.673Z,100.00
2024-01-31T11:18:05.349Z,100.00
2024-01-31T11:20:35.485Z,100.00
2024-01-31T11:23:05.041Z,100.00
2024-01-31T11:25:33.514Z,100.00
2024-01-31T11:28:01.120Z,100.00
2024-01-31T11:30:28.394Z,100.00
2024-01-31T11:32:55.789Z,100.00
2024-01-31T11:35:26.850Z,100.00
2024-01-31T11:37:54.146Z,99.14
2024-01-31T11:40:21.422Z,99.11
2024-01-31T11:42:49.124Z,99.36
2024-01-31T11:45:19.129Z,97.47
2024-01-31T11:47:46.735Z,93.83
2024-01-31T11:50:13.852Z,87.75
2024-01-31T11:52:43.052Z,84.61
2024-01-31T11:55:12.469Z,81.38
2024-01-31T11:57:40.223Z,80.81
2024-01-31T12:00:07.678Z,80.12
2024-01-31T12:02:41.108Z,78.84
2024-01-31T12:05:08.586Z,76.64
2024-01-31T12:07:35.769Z,70.01
2024-01-31T12:10:05.142Z,64.98
2024-01-31T12:12:33.106Z,65.34
2024-01-31T12:15:00.377Z,65.73
2024-01-31T12:17:28.198Z,66.13
2024-01-31T12:20:06.142Z,67.38
2024-01-31T12:22:34.213Z,69.38
2024-01-31T12:25:02.396Z,70.85
2024-01-31T12:27:29.780Z,70.31
2024-01-31T12:29:58.168Z,72.59
2024-01-31T12:32:26.362Z,75.46
2024-01-31T12:34:54.071Z,77.31
2024-01-31T12:37:21.147Z,79.34
2024-01-31T12:39:49.265Z,82.15
2024-01-31T12:42:17.245Z,85.99
2024-01-31T12:44:46.037Z,87.94
2024-01-31T12:47:13.649Z,90.00
2024-01-31T12:49:42.296Z,91.96
2024-01-31T12:52:09.772Z,94.88
2024-01-31T12:54:36.944Z,94.98
2024-01-31T12:57:04.261Z,96.28
2024-01-31T12:59:32.070Z,97.06
2024-01-31T13:01:59.328Z,98.19
2024-01-31T13:04:26.626Z,99.44
2024-01-31T13:06:55.133Z,99.97
2024-01-31T13:09:22.907Z,100.00
2024-01-31T13:11:50.008Z,100.00
2024-01-31T13:14:17.199Z,100.00
2024-01-31T13:16:54.189Z,100.00
2024-01-31T13:19:26.424Z,100.00
2024-01-31T13:21:54.544Z,100.00
2024-01-31T13:24:22.301Z,100.00
2024-01-31T13:26:50.010Z,100.00
2024-01-31T13:29:17.464Z,100.00
2024-01-31T13:31:45.162Z,100.00
2024-01-31T13:34:14.595Z,100.00
2024-01-31T13:36:42.318Z,100.00
2024-01-31T13:39:09.713Z,100.00
2024-01-31T13:41:37.438Z,100.00
2024-01-31T13:44:04.858Z,100.00
2024-01-31T13:46:32.227Z,100.00
2024-01-31T13:48:59.575Z,100.00
2024-01-31T13:51:26.975Z,100.00
2024-01-31T13:53:54.068Z,99.84
2024-01-31T13:56:21.535Z,97.51
2024-01-31T13:58:48.951Z,95.10
2024-01-31T14:01:16.253Z,95.30
2024-01-31T14:03:43.723Z,95.04
2024-01-31T14:06:11.102Z,95.20
2024-01-31T14:08:38.308Z,95.47
2024-01-31T14:11:06.452Z,95.44
2024-01-31T14:13:33.549Z,95.36
2024-01-31T14:16:00.827Z,95.72
2024-01-31T14:18:31.042Z,95.00
2024-01-31T14:20:58.225Z,95.48
2024-01-31T14:23:42.330Z,94.99
2024-01-31T14:26:11.356Z,94.67
2024-01-31T14:28:39.728Z,94.64
2024-01-31T14:31:08.031Z,95.13
2024-01-31T14:33:37.635Z,95.33
2024-01-31T14:36:05.388Z,94.65
2024-01-31T14:38:32.692Z,95.60
2024-01-31T14:41:00.449Z,96.63
2024-01-31T14:43:28.590Z,96.89
2024-01-31T14:45:55.598Z,98.10
2024-01-31T14:48:23.282Z,98.80
2024-01-31T14:50:53.328Z,99.28
2024-01-31T14:53:20.463Z,100.00
2024-01-31T14:55:49.602Z,100.00
2024-01-31T14:58:16.685Z,100.00
2024-01-31T15:00:43.807Z,100.00
2024-01-31T15:03:11.063Z,100.00
2024-01-31T15:05:38.322Z,100.00
2024-01-31T15:08:05.606Z,100.00
2024-01-31T15:10:33.553Z,100.00
2024-01-31T15:13:01.066Z,100.00
2024-01-31T15:15:28.209Z,100.00
2024-01-31T15:17:55.558Z,100.00
2024-01-31T15:20:22.816Z,100.00
2024-01-31T15:22:49.976Z,100.00
2024-01-31T15:25:17.106Z,100.00
2024-01-31T15:27:45.450Z,100.00
2024-01-31T15:30:12.875Z,100.00
2024-01-31T15:32:40.154Z,100.00
2024-01-31T15:35:08.281Z,100.00
2024-01-31T15:37:35.998Z,100.00
2024-01-31T15:40:04.087Z,100.00
2024-01-31T15:42:31.480Z,100.00
2024-01-31T15:44:58.974Z,100.00
2024-01-31T15:47:26.173Z,100.00
2024-01-31T15:49:53.257Z,100.00
2024-01-31T15:52:20.422Z,100.00
2024-01-31T15:54:47.509Z,100.00
2024-01-31T15:57:14.545Z,100.00
2024-01-31T15:59:41.627Z,100.00
2024-01-31T16:02:08.760Z,100.00
2024-01-31T16:04:37.027Z,100.00
2024-01-31T16:07:04.456Z,100.00
2024-01-31T16:09:31.668Z,100.00
2024-01-31T16:11:58.859Z,100.00
2024-01-31T16:14:26.735Z,100.00
2024-01-31T16:16:53.845Z,100.00
2024-01-31T16:19:21.120Z,100.00
2024-01-31T16:21:48.418Z,100.00
2024-01-31T16:24:15.619Z,100.00
2024-01-31T16:26:42.824Z,100.00
2024-01-31T16:29:09.865Z,100.00
2024-01-31T16:31:39.846Z,100.00
2024-01-31T16:34:06.961Z,100.00
2024-01-31T16:36:34.111Z,100.00
2024-01-31T16:39:01.370Z,100.00
2024-01-31T16:41:28.578Z,100.00
2024-01-31T16:43:57.086Z,100.00
2024-01-31T16:46:24.258Z,100.00
2024-01-31T16:48:54.746Z,100.00
2024-01-31T16:51:22.303Z,100.00
2024-01-31T16:53:49.679Z,100.00
2024-01-31T16:56:16.738Z,100.00
2024-01-31T16:58:43.888Z,100.00
2024-01-31T17:01:11.067Z,100.00
2024-01-31T17:03:38.800Z,100.00
2024-01-31T17:06:06.414Z,100.00
2024-01-31T17:08:34.025Z,100.00
2024-01-31T17:11:01.429Z,100.00
2024-01-31T17:13:28.822Z,100.00
2024-01-31T17:15:56.125Z,100.00
2024-01-31T17:18:23.610Z,100.00
2024-01-31T17:20:51.720Z,100.00
2024-01-31T17:23:19.447Z,100.00
2024-01-31T17:25:46.904Z,100.00
2024-01-31T17:28:14.459Z,100.00
2024-01-31T17:30:44.392Z,100.00
2024-01-31T17:33:11.972Z,100.00
2024-01-31T17:35:41.596Z,100.00
2024-01-31T17:38:08.760Z,100.00
2024-01-31T17:40:35.829Z,100.00
2024-01-31T17:43:04.101Z,100.00
2024-01-31T17:45:33.421Z,100.00
2024-01-31T17:48:00.875Z,100.00
2024-01-31T17:50:28.086Z,100.00
2024-01-31T17:52:55.244Z,100.00
2024-01-31T17:55:23.697Z,100.00
2024-01-31T17:57:50.913Z,100.00
2024-01-31T18:00:22.042Z,100.00
2024-01-31T18:02:53.857Z,100.00
2024-01-31T18:05:21.048Z,100.00
2024-01-31T18:07:51.093Z,100.00
2024-01-31T18:10:20.284Z,100.00
2024-01-31T18:12:47.487Z,100.00
2024-01-31T18:15:19.623Z,100.00
2024-01-31T18:17:48.568Z,100.00
2024-01-31T18:20:15.975Z,100.00
2024-01-31T18:22:43.169Z,100.00
2024-01-31T18:25:10.640Z,100.00
2024-01-31T18:27:37.946Z,100.00
2024-01-31T18:30:05.956Z,100.00
2024-01-31T18:32:36.042Z,100.00
2024-01-31T18:35:03.490Z,100.00
2024-01-31T18:37:30.930Z,100.00
2024-01-31T18:39:58.381Z,100.00
2024-01-31T18:42:29.494Z,100.00
2024-01-31T18:44:56.743Z,100.00
2024-01-31T18:47:24.025Z,100.00
2024-01-31T18:49:51.184Z,100.00
2024-01-31T18:52:18.517Z,100.00
2024-01-31T18:54:45.707Z,100.00
2024-01-31T18:57:12.901Z,100.00
2024-01-31T18:59:40.174Z,100.00
2024-01-31T19:02:07.254Z,100.00
2024-01-31T19:04:34.544Z,100.00
2024-01-31T19:07:02.009Z,100.00
2024-01-31T19:09:30.404Z,100.00
2024-01-31T19:11:57.964Z,100.00
2024-01-31T19:14:27.566Z,100.00
2024-01-31T19:16:57.788Z,100.00
2024-01-31T19:19:27.610Z,100.00
2024-01-31T19:21:54.940Z,100.00
2024-01-31T19:24:24.984Z,100.00
2024-01-31T19:26:52.089Z,100.00
2024-01-31T19:29:19.185Z,100.00
2024-01-31T19:31:46.604Z,100.00
2024-01-31T19:34:13.998Z,100.00
2024-01-31T19:36:42.115Z,100.00
2024-01-31T19:39:13.772Z,100.00
2024-01-31T19:41:42.717Z,100.00
2024-01-31T19:44:11.240Z,100.00
2024-01-31T19:46:40.604Z,100.00
2024-01-31T19:49:10.834Z,100.00
2024-01-31T19:51:38.185Z,100.00
2024-01-31T19:54:05.327Z,100.00
2024-01-31T19:56:32.660Z,100.00
2024-01-31T19:58:59.786Z,100.00
2024-01-31T20:01:27.004Z,100.00
2024-01-31T20:03:54.199Z,100.00
2024-01-31T20:06:21.392Z,100.00
2024-01-31T20:08:48.904Z,100.00
2024-01-31T20:11:17.613Z,100.00
2024-01-31T20:13:45.251Z,100.00
2024-01-31T20:16:16.081Z,100.00
2024-01-31T20:18:46.132Z,100.00
2024-01-31T20:21:14.506Z,100.00
2024-01-31T20:23:41.971Z,100.00
2024-01-31T20:26:11.174Z,100.00
2024-01-31T20:28:38.362Z,100.00
2024-01-31T20:31:06.054Z,100.00
2024-01-31T20:33:33.999Z,100.00
2024-01-31T20:36:01.245Z,100.00
2024-01-31T20:38:28.496Z,100.00
2024-01-31T20:40:55.615Z,100.00
2024-01-31T20:43:22.808Z,100.00
2024-01-31T20:45:49.889Z,100.00
2024-01-31T20:48:22.941Z,100.00
2024-01-31T20:50:53.675Z,100.00
2024-01-31T20:53:21.433Z,100.00
2024-01-31T20:55:48.526Z,100.00
2024-01-31T20:58:15.750Z,100.00
2024-01-31T21:00:42.863Z,100.00
2024-01-31T21:03:13.153Z,100.00
2024-01-31T21:05:41.573Z,100.00
2024-01-31T21:08:10.864Z,100.00
2024-01-31T21:10:42.085Z,100.00
2024-01-31T21:13:12.655Z,100.00
2024-01-31T21:15:40.430Z,100.00
2024-01-31T21:18:08.161Z,100.00
2024-01-31T21:20:37.080Z,100.00
2024-01-31T21:23:06.171Z,100.00
2024-01-31T21:25:33.617Z,100.00
2024-01-31T21:28:03.192Z,100.00
2024-01-31T21:30:30.892Z,100.00
2024-01-31T21:32:58.166Z,100.00
2024-01-31T21:35:25.690Z,100.00
2024-01-31T21:37:53.120Z,100.00
2024-01-31T21:40:25.998Z,100.00
2024-01-31T21:42:53.249Z,100.00
2024-01-31T21:45:20.467Z,100.00
2024-01-31T21:47:47.998Z,100.00
2024-01-31T21:50:24.282Z,100.00
2024-01-31T21:52:51.881Z,100.00
2024-01-31T21:55:21.873Z,100.00
2024-01-31T21:57:49.272Z,100.00
2024-01-31T22:00:16.744Z,100.00
2024-01-31T22:02:43.913Z,100.00
2024-01-31T22:05:13.802Z,100.00
2024-01-31T22:07:41.054Z,100.00
2024-01-31T22:10:08.516Z,100.00
2024-01-31T22:12:37.452Z,100.00
2024-01-31T22:15:05.868Z,100.00
2024-01-31T22:17:35.496Z,100.00
2024-01-31T22:20:02.617Z,100.00
2024-01-31T22:22:30.137Z,100.00
2024-01-31T22:24:57.486Z,100.00
2024-01-31T22:27:25.700Z,100.00
2024-01-31T22:29:55.467Z,100.00
2024-01-31T22:32:22.640Z,100.00
2024-01-31T22:34:50.933Z,100.00
2024-01-31T22:37:18.183Z,100.00
2024-01-31T22:39:46.119Z,100.00
2024-01-31T22:42:13.325Z,100.00
2024-01-31T22:44:40.515Z,100.00
2024-01-31T22:47:07.630Z,100.00
2024-01-31T22:49:34.788Z,100.00
2024-01-31T22:52:02.007Z,100.00
2024-01-31T22:54:30.040Z,100.00
2024-01-31T22:56:58.485Z,100.00
2024-01-31T22:59:25.657Z,100.00
2024-01-31T23:01:52.800Z,100.00
2024-01-31T23:04:19.934Z,100.00
2024-01-31T23:06:47.244Z,100.00
2024-01-31T23:09:14.570Z,100.00
2024-01-31T23:11:42.302Z,100.00
2024-01-31T23:14:11.115Z,100.00
2024-01-31T23:16:38.213Z,100.00
2024-01-31T23:19:05.529Z,100.00
2024-01-31T23:21:33.296Z,100.00
2024-01-31T23:24:00.361Z,100.00
2024-01-31T23:26:27.795Z,100.00
2024-01-31T23:28:54.989Z,100.00
2024-01-31T23:31:22.417Z,100.00
2024-01-31T23:33:49.803Z,100.00
2024-01-31T23:36:16.969Z,100.00
2024-01-31T23:38:44.092Z,100.00
2024-01-31T23:41:11.562Z,100.00
2024-01-31T23:43:38.673Z,100.00
2024-01-31T23:46:05.783Z,100.00
2024-01-31T23:48:33.137Z,100.00
2024-01-31T23:51:00.679Z,100.00
2024-01-31T23:53:28.300Z,100.00
2024-01-31T23:55:57.838Z,100.00
2024-01-31T23:58:24.963Z,100.00
